K-storm — V2DV8 — position and weather

sailwx.info

Track history (hours):
 
Tides and Currents Weather Stations Pressure Air Temp Water Temp Dewpoint Dewpoint Depression Visibility Wind Speed Wind Dir Waves Ship Positions

K-storm

Last reported at 2014-Jul-21 13:29 UTC. Time now 2014-Jul-24 10:47 UTC.
Position N 25°36' W 079°40'.

Length 139 m; draft 6.1 m.

Type: Ship. MMSI: 305350000.

Date/timePositionNaut miles runAvg speedWind from/ knotsBaromVisibWave heightAir tempDewpointWater temp
2014-Jul-21 13:29N 25°36' W 079°40'1212.8
2014-Jul-21 12:33N 25°47' W 079°45'1313.5
2014-Jul-21 11:33N 25°57' W 079°56'1312.7
2014-Jul-21 10:33N 26°05' W 080°07'1 1.0
2014-Jul-21 09:28N 26°04' W 080°07'0 0.0
2014-Jul-21 08:31N 26°04' W 080°07'0 0.0
2014-Jul-21 07:28N 26°04' W 080°07'0 0.0
2014-Jul-21 06:33N 26°04' W 080°07'0 0.0
2014-Jul-21 05:33N 26°04' W 080°07'0 0.0
2014-Jul-21 04:23N 26°04' W 080°07'0 0.0
2014-Jul-21 03:29N 26°04' W 080°07'0 0.0
2014-Jul-21 02:25N 26°04' W 080°07'0 0.0
2014-Jul-21 01:31N 26°04' W 080°07'0 0.0
2014-Jul-21 00:31N 26°04' W 080°07'0 0.0
2014-Jul-20 23:33N 26°04' W 080°07'0 0.0
2014-Jul-20 22:33N 26°04' W 080°07'0 0.0
2014-Jul-20 21:33N 26°04' W 080°07'0 0.0
2014-Jul-20 20:33N 26°04' W 080°07'2 1.7
2014-Jul-20 19:33N 26°06' W 080°07'1514.8
2014-Jul-20 18:33N 25°56' W 079°54'1919.1
2014-Jul-20 17:33N 25°41' W 079°41'  
2014-Jul-14 11:06N 25°33' W 079°40'713.5
2014-Jul-14 10:34N 25°40' W 079°42'1313.0
2014-Jul-14 09:34N 25°52' W 079°47'1312.9
2014-Jul-14 08:33N 26°01' W 079°58'6 6.0
2014-Jul-14 07:33N 26°05' W 080°02'4 4.0
2014-Jul-14 06:33N 26°01' W 080°01'6 5.9
2014-Jul-14 05:31N 26°04' W 080°07'0 0.0
2014-Jul-14 04:27N 26°04' W 080°07'0 0.0
2014-Jul-14 03:21N 26°04' W 080°07'0 0.0
2014-Jul-14 02:29N 26°04' W 080°07'0 0.0
2014-Jul-14 01:23N 26°04' W 080°07'0 0.0
2014-Jul-14 00:28N 26°04' W 080°07'0 0.0
2014-Jul-13 23:25N 26°04' W 080°07'0 0.0
2014-Jul-13 22:31N 26°04' W 080°07'0 0.0
2014-Jul-13 21:27N 26°04' W 080°07'0 0.0
2014-Jul-13 20:33N 26°04' W 080°07'1 1.3
2014-Jul-13 19:33N 26°05' W 080°07'5 4.7
2014-Jul-13 18:33N 26°03' W 080°02'1615.7
2014-Jul-13 17:33N 25°51' W 079°51'  
Track history (hours):
 
Tides and Currents Weather Stations Pressure Air Temp Water Temp Dewpoint Dewpoint Depression Visibility Wind Speed Wind Dir Waves Ship Positions

K-storm

Last reported at 2014-Jul-21 13:29 UTC. Time now 2014-Jul-24 10:47 UTC.
Position N 25°36' W 079°40'.

Length 139 m; draft 6.1 m.

Type: Ship. MMSI: 305350000.

Date/timePositionNaut miles runAvg speedWind from/ knotsBaromVisibWave heightAir tempDewpointWater temp
2014-Jul-21 13:29N 25°36' W 079°40'1212.8
2014-Jul-21 12:33N 25°47' W 079°45'1313.5
2014-Jul-21 11:33N 25°57' W 079°56'1312.7
2014-Jul-21 10:33N 26°05' W 080°07'1 1.0
2014-Jul-21 09:28N 26°04' W 080°07'0 0.0
2014-Jul-21 08:31N 26°04' W 080°07'0 0.0
2014-Jul-21 07:28N 26°04' W 080°07'0 0.0
2014-Jul-21 06:33N 26°04' W 080°07'0 0.0
2014-Jul-21 05:33N 26°04' W 080°07'0 0.0
2014-Jul-21 04:23N 26°04' W 080°07'0 0.0
2014-Jul-21 03:29N 26°04' W 080°07'0 0.0
2014-Jul-21 02:25N 26°04' W 080°07'0 0.0
2014-Jul-21 01:31N 26°04' W 080°07'0 0.0
2014-Jul-21 00:31N 26°04' W 080°07'0 0.0
2014-Jul-20 23:33N 26°04' W 080°07'0 0.0
2014-Jul-20 22:33N 26°04' W 080°07'0 0.0
2014-Jul-20 21:33N 26°04' W 080°07'0 0.0
2014-Jul-20 20:33N 26°04' W 080°07'2 1.7
2014-Jul-20 19:33N 26°06' W 080°07'1514.8
2014-Jul-20 18:33N 25°56' W 079°54'1919.1
2014-Jul-20 17:33N 25°41' W 079°41'  
2014-Jul-14 11:06N 25°33' W 079°40'713.5
2014-Jul-14 10:34N 25°40' W 079°42'1313.0
2014-Jul-14 09:34N 25°52' W 079°47'1312.9
2014-Jul-14 08:33N 26°01' W 079°58'6 6.0
2014-Jul-14 07:33N 26°05' W 080°02'4 4.0
2014-Jul-14 06:33N 26°01' W 080°01'6 5.9
2014-Jul-14 05:31N 26°04' W 080°07'0 0.0
2014-Jul-14 04:27N 26°04' W 080°07'0 0.0
2014-Jul-14 03:21N 26°04' W 080°07'0 0.0
2014-Jul-14 02:29N 26°04' W 080°07'0 0.0
2014-Jul-14 01:23N 26°04' W 080°07'0 0.0
2014-Jul-14 00:28N 26°04' W 080°07'0 0.0
2014-Jul-13 23:25N 26°04' W 080°07'0 0.0
2014-Jul-13 22:31N 26°04' W 080°07'0 0.0
2014-Jul-13 21:27N 26°04' W 080°07'0 0.0
2014-Jul-13 20:33N 26°04' W 080°07'1 1.3
2014-Jul-13 19:33N 26°05' W 080°07'5 4.7
2014-Jul-13 18:33N 26°03' W 080°02'1615.7
2014-Jul-13 17:33N 25°51' W 079°51'  

Dump ship's entire track history